createdAt,value
2018-11-10T00:00:45.061Z,10.05
2018-11-10T00:03:14.094Z,10.07
2018-11-10T00:05:43.282Z,10.17
2018-11-10T00:08:12.596Z,10.15
2018-11-10T00:10:41.749Z,10.37
2018-11-10T00:13:10.688Z,10.39
2018-11-10T00:15:39.972Z,10.30
2018-11-10T00:18:09.133Z,10.07
2018-11-10T00:20:38.110Z,10.01
2018-11-10T00:23:07.348Z,10.15
2018-11-10T00:25:36.454Z,10.27
2018-11-10T00:28:05.618Z,10.21
2018-11-10T00:30:34.593Z,10.20
2018-11-10T00:33:03.652Z,10.12
2018-11-10T00:35:32.755Z,10.05
2018-11-10T00:38:01.927Z,9.99
2018-11-10T00:40:31.033Z,9.86
2018-11-10T00:43:00.178Z,9.85
2018-11-10T00:45:29.445Z,9.68
2018-11-10T00:47:58.246Z,9.68
2018-11-10T00:50:27.330Z,9.87
2018-11-10T00:52:56.214Z,9.93
2018-11-10T00:55:25.361Z,9.89
2018-11-10T00:57:54.392Z,9.76
2018-11-10T01:00:23.186Z,9.91
2018-11-10T01:02:52.109Z,9.92
2018-11-10T01:05:21.066Z,9.83
2018-11-10T01:07:50.211Z,9.79
2018-11-10T01:10:19.394Z,9.74
2018-11-10T01:12:48.635Z,9.82
2018-11-10T01:15:17.839Z,9.84
2018-11-10T01:17:46.981Z,9.85
2018-11-10T01:20:16.081Z,9.88
2018-11-10T01:22:44.977Z,9.82
2018-11-10T01:25:14.272Z,9.78
2018-11-10T01:27:43.382Z,9.79
2018-11-10T01:30:15.326Z,9.84
2018-11-10T01:32:45.088Z,9.82
2018-11-10T01:35:14.641Z,9.83
2018-11-10T01:37:43.737Z,9.81
2018-11-10T01:40:14.058Z,9.78
2018-11-10T01:42:43.779Z,9.77
2018-11-10T01:45:15.626Z,9.81
2018-11-10T01:47:45.241Z,9.85
2018-11-10T01:50:14.173Z,9.85
2018-11-10T01:52:43.422Z,9.77
2018-11-10T01:55:12.629Z,9.69
2018-11-10T01:57:42.128Z,9.57
2018-11-10T02:00:15.876Z,9.73
2018-11-10T02:02:45.369Z,9.65
2018-11-10T02:05:14.692Z,9.63
2018-11-10T02:07:43.573Z,9.66
2018-11-10T02:10:13.136Z,9.68
2018-11-10T02:12:42.565Z,9.77
2018-11-10T02:15:14.006Z,9.79
2018-11-10T02:17:43.185Z,9.77
2018-11-10T02:20:13.349Z,9.75
2018-11-10T02:22:42.910Z,9.66
2018-11-10T02:25:12.613Z,9.68
2018-11-10T02:27:42.169Z,9.79
2018-11-10T02:30:12.126Z,9.79
2018-11-10T02:32:41.410Z,9.85
2018-11-10T02:35:10.487Z,9.87
2018-11-10T02:37:40.062Z,9.81
2018-11-10T02:40:11.452Z,9.73
2018-11-10T02:42:40.315Z,9.62
2018-11-10T02:45:10.941Z,9.55
2018-11-10T02:47:39.768Z,9.43
2018-11-10T02:50:08.870Z,9.34
2018-11-10T02:52:38.109Z,9.39
2018-11-10T02:55:07.791Z,9.27
2018-11-10T02:57:36.770Z,9.38
2018-11-10T03:00:06.287Z,9.30
2018-11-10T03:02:35.435Z,9.46
2018-11-10T03:05:04.579Z,9.48
2018-11-10T03:07:33.778Z,9.55
2018-11-10T03:10:03.126Z,9.41
2018-11-10T03:12:32.373Z,9.27
2018-11-10T03:15:01.526Z,9.26
2018-11-10T03:17:30.850Z,9.44
2018-11-10T03:19:59.965Z,9.51
2018-11-10T03:22:28.957Z,9.42
2018-11-10T03:24:58.049Z,9.27
2018-11-10T03:27:27.196Z,9.09
2018-11-10T03:29:56.246Z,8.97
2018-11-10T03:32:25.437Z,8.92
2018-11-10T03:34:54.625Z,8.83
2018-11-10T03:37:23.798Z,8.80
2018-11-10T03:39:52.933Z,8.78
2018-11-10T03:42:22.126Z,8.77
2018-11-10T03:44:51.289Z,8.63
2018-11-10T03:47:20.427Z,8.58
2018-11-10T03:49:52.228Z,8.49
2018-11-10T03:52:21.685Z,8.45
2018-11-10T03:54:50.575Z,8.39
2018-11-10T03:57:19.711Z,8.28
2018-11-10T03:59:48.805Z,8.13
2018-11-10T04:02:18.002Z,8.08
2018-11-10T04:04:46.917Z,8.10
2018-11-10T04:07:15.910Z,8.07
2018-11-10T04:09:44.953Z,8.06
2018-11-10T04:12:14.095Z,7.97
2018-11-10T04:14:43.149Z,7.89
2018-11-10T04:17:12.383Z,7.78
2018-11-10T04:19:41.414Z,7.66
2018-11-10T04:22:10.470Z,7.81
2018-11-10T04:24:39.805Z,7.77
2018-11-10T04:27:08.858Z,7.73
2018-11-10T04:29:38.102Z,7.84
2018-11-10T04:32:07.198Z,7.70
2018-11-10T04:34:36.335Z,7.51
2018-11-10T04:37:05.586Z,7.39
2018-11-10T04:39:34.682Z,7.47
2018-11-10T04:42:03.465Z,7.48
2018-11-10T04:44:32.721Z,7.57
2018-11-10T04:47:04.610Z,7.55
2018-11-10T04:49:33.702Z,7.44
2018-11-10T04:52:02.918Z,7.37
2018-11-10T04:54:32.183Z,7.33
2018-11-10T04:57:01.490Z,7.27
2018-11-10T04:59:30.753Z,7.21
2018-11-10T05:01:59.917Z,7.16
2018-11-10T05:04:28.975Z,7.12
2018-11-10T05:06:57.954Z,7.12
2018-11-10T05:09:27.060Z,7.06
2018-11-10T05:11:56.490Z,7.06
2018-11-10T05:14:26.162Z,7.04
2018-11-10T05:16:55.253Z,7.00
2018-11-10T05:19:24.158Z,6.92
2018-11-10T05:21:52.997Z,7.04
2018-11-10T05:24:22.216Z,7.08
2018-11-10T05:26:51.531Z,7.06
2018-11-10T05:29:20.649Z,7.10
2018-11-10T05:31:49.578Z,7.16
2018-11-10T05:34:18.862Z,7.02
2018-11-10T05:36:48.058Z,7.13
2018-11-10T05:39:16.893Z,7.20
2018-11-10T05:41:46.133Z,7.22
2018-11-10T05:44:29.878Z,7.21
2018-11-10T05:46:58.696Z,7.25
2018-11-10T05:49:27.793Z,7.22
2018-11-10T05:51:56.814Z,7.25
2018-11-10T05:54:25.946Z,7.30
2018-11-10T05:56:55.102Z,7.32
2018-11-10T05:59:24.571Z,7.34
2018-11-10T06:01:53.606Z,7.53
2018-11-10T06:04:23.006Z,7.63
2018-11-10T06:06:52.294Z,7.73
2018-11-10T06:09:21.372Z,7.86
2018-11-10T06:11:50.250Z,8.05
2018-11-10T06:14:19.412Z,8.28
2018-11-10T06:16:48.577Z,8.48
2018-11-10T06:19:17.412Z,8.66
2018-11-10T06:21:46.714Z,8.80
2018-11-10T06:24:15.526Z,8.90
2018-11-10T06:26:44.505Z,9.10
2018-11-10T06:29:13.721Z,9.13
2018-11-10T06:31:42.959Z,8.99
2018-11-10T06:34:12.133Z,8.94
2018-11-10T06:36:41.332Z,9.12
2018-11-10T06:39:11.282Z,9.30
2018-11-10T06:41:40.001Z,9.43
2018-11-10T06:44:09.155Z,9.62
2018-11-10T06:46:38.281Z,9.63
2018-11-10T06:49:07.894Z,9.66
2018-11-10T06:51:37.230Z,9.79
2018-11-10T06:54:06.626Z,9.75
2018-11-10T06:56:35.622Z,9.80
2018-11-10T06:59:04.798Z,9.82
2018-11-10T07:01:33.654Z,9.91
2018-11-10T07:04:02.585Z,9.97
2018-11-10T07:06:31.813Z,10.06
2018-11-10T07:09:01.259Z,10.21
2018-11-10T07:11:30.504Z,10.42
2018-11-10T07:13:59.845Z,10.64
2018-11-10T07:16:28.987Z,10.88
2018-11-10T07:18:57.856Z,11.05
2018-11-10T07:21:26.841Z,11.13
2018-11-10T07:23:55.954Z,11.14
2018-11-10T07:26:24.867Z,11.10
2018-11-10T07:28:53.858Z,11.04
2018-11-10T07:31:23.197Z,11.07
2018-11-10T07:33:52.598Z,11.09
2018-11-10T07:36:21.529Z,11.13
2018-11-10T07:38:50.606Z,11.21
2018-11-10T07:41:19.562Z,11.29
2018-11-10T07:43:48.726Z,11.38
2018-11-10T07:46:17.770Z,11.47
2018-11-10T07:48:47.029Z,11.53
2018-11-10T07:51:16.441Z,11.66
2018-11-10T07:53:45.465Z,11.71
2018-11-10T07:56:14.761Z,11.81
2018-11-10T07:58:43.727Z,11.89
2018-11-10T08:01:12.942Z,12.01
2018-11-10T08:03:42.201Z,12.09
2018-11-10T08:06:11.446Z,12.18
2018-11-10T08:08:40.339Z,12.28
2018-11-10T08:11:09.333Z,12.39
2018-11-10T08:13:38.378Z,12.55
2018-11-10T08:16:07.541Z,12.65
2018-11-10T08:18:36.812Z,12.73
2018-11-10T08:21:05.830Z,12.92
2018-11-10T08:23:35.018Z,13.10
2018-11-10T08:26:04.068Z,13.36
2018-11-10T08:28:33.374Z,13.71
2018-11-10T08:31:02.684Z,14.05
2018-11-10T08:33:31.595Z,14.29
2018-11-10T08:36:00.610Z,14.49
2018-11-10T08:38:29.881Z,14.79
2018-11-10T08:40:58.775Z,14.97
2018-11-10T08:43:27.578Z,15.15
2018-11-10T08:45:56.971Z,15.30
2018-11-10T08:48:26.012Z,15.40
2018-11-10T08:50:54.766Z,15.54
2018-11-10T08:53:23.898Z,15.68
2018-11-10T08:55:53.345Z,15.94
2018-11-10T08:58:22.706Z,16.12
2018-11-10T09:00:51.998Z,16.06
2018-11-10T09:03:21.334Z,16.24
2018-11-10T09:05:50.341Z,16.47
2018-11-10T09:08:19.635Z,16.66
2018-11-10T09:10:48.646Z,16.84
2018-11-10T09:13:17.809Z,16.89
2018-11-10T09:15:46.798Z,16.94
2018-11-10T09:18:15.869Z,17.04
2018-11-10T09:20:45.065Z,17.21
2018-11-10T09:23:14.303Z,17.20
2018-11-10T09:25:43.389Z,17.24
2018-11-10T09:28:12.306Z,17.22
2018-11-10T09:30:41.370Z,17.30
2018-11-10T09:33:10.274Z,17.32
2018-11-10T09:35:39.381Z,17.29
2018-11-10T09:38:08.380Z,17.46
2018-11-10T09:40:37.610Z,17.65
2018-11-10T09:43:06.579Z,17.89
2018-11-10T09:45:35.798Z,18.19
2018-11-10T09:48:04.886Z,18.54
2018-11-10T09:50:34.045Z,18.78
2018-11-10T09:53:03.351Z,18.88
2018-11-10T09:55:32.550Z,19.12
2018-11-10T09:58:01.929Z,19.44
2018-11-10T10:00:31.130Z,19.78
2018-11-10T10:03:00.333Z,20.20
2018-11-10T10:05:30.318Z,20.59
2018-11-10T10:07:59.398Z,20.63
2018-11-10T10:10:28.648Z,20.77
2018-11-10T10:12:57.854Z,20.75
2018-11-10T10:15:26.994Z,20.80
2018-11-10T10:17:56.311Z,21.16
2018-11-10T10:20:25.417Z,21.66
2018-11-10T10:22:56.633Z,22.33
2018-11-10T10:25:25.553Z,22.73
2018-11-10T10:27:54.490Z,23.39
2018-11-10T10:30:25.722Z,23.62
2018-11-10T10:32:54.856Z,23.68
2018-11-10T10:35:23.918Z,23.67
2018-11-10T10:37:53.323Z,23.54
2018-11-10T10:40:22.612Z,23.45
2018-11-10T10:42:51.911Z,22.83
2018-11-10T10:45:22.974Z,23.55
2018-11-10T10:47:52.424Z,23.92
2018-11-10T10:50:22.549Z,24.02
2018-11-10T10:52:51.453Z,23.60
2018-11-10T10:55:20.608Z,23.37
2018-11-10T10:57:50.427Z,23.05
2018-11-10T11:00:24.694Z,23.88
2018-11-10T11:02:59.065Z,25.08
2018-11-10T11:05:33.273Z,26.41
2018-11-10T11:08:02.177Z,26.97
2018-11-10T11:10:31.537Z,27.12
2018-11-10T11:13:00.834Z,27.71
2018-11-10T11:15:29.993Z,28.23
2018-11-10T11:17:59.065Z,29.17
2018-11-10T11:20:28.586Z,29.31
2018-11-10T11:22:57.622Z,29.94
2018-11-10T11:25:27.077Z,30.74
2018-11-10T11:27:56.048Z,31.54
2018-11-10T11:30:25.086Z,32.50
2018-11-10T11:32:54.209Z,32.51
2018-11-10T11:35:23.478Z,33.39
2018-11-10T11:37:52.525Z,34.01
2018-11-10T11:40:21.698Z,33.76
2018-11-10T11:42:50.841Z,34.69
2018-11-10T11:45:20.028Z,34.03
2018-11-10T11:47:49.021Z,34.10
2018-11-10T11:50:18.327Z,33.69
2018-11-10T11:52:47.620Z,33.84
2018-11-10T11:55:16.876Z,33.00
2018-11-10T11:57:46.150Z,31.63
2018-11-10T12:00:16.495Z,31.71
2018-11-10T12:02:46.200Z,33.04
2018-11-10T12:05:16.669Z,33.69
2018-11-10T12:07:46.293Z,33.84
2018-11-10T12:10:15.842Z,34.36
2018-11-10T12:12:44.997Z,34.72
2018-11-10T12:15:15.346Z,34.97
2018-11-10T12:17:44.227Z,34.74
2018-11-10T12:20:14.338Z,34.86
2018-11-10T12:22:43.342Z,34.72
2018-11-10T12:25:13.534Z,34.89
2018-11-10T12:27:43.297Z,35.05
2018-11-10T12:30:12.711Z,34.81
2018-11-10T12:32:42.163Z,34.63
2018-11-10T12:35:12.774Z,33.93
2018-11-10T12:37:42.115Z,33.45
2018-11-10T12:40:12.551Z,33.42
2018-11-10T12:42:41.822Z,33.06
2018-11-10T12:45:11.797Z,31.06
2018-11-10T12:47:41.316Z,29.88
2018-11-10T12:50:12.176Z,28.94
2018-11-10T12:52:42.138Z,29.31
2018-11-10T12:55:12.526Z,29.83
2018-11-10T12:57:42.257Z,29.35
2018-11-10T13:00:13.000Z,29.57
2018-11-10T13:02:42.098Z,29.15
2018-11-10T13:05:11.833Z,28.36
2018-11-10T13:07:42.018Z,27.24
2018-11-10T13:10:11.639Z,26.32
2018-11-10T13:12:41.383Z,25.29
2018-11-10T13:15:10.986Z,24.51
2018-11-10T13:17:40.483Z,23.92
2018-11-10T13:20:12.718Z,23.28
2018-11-10T13:22:41.995Z,22.70
2018-11-10T13:25:12.169Z,22.18
2018-11-10T13:27:41.294Z,21.51
2018-11-10T13:30:11.711Z,21.14
2018-11-10T13:32:40.556Z,20.93
2018-11-10T13:35:10.387Z,20.56
2018-11-10T13:37:39.506Z,20.25
2018-11-10T13:40:09.379Z,19.81
2018-11-10T13:42:38.549Z,19.41
2018-11-10T13:45:09.454Z,19.31
2018-11-10T13:47:38.434Z,19.13
2018-11-10T13:50:09.330Z,18.94
2018-11-10T13:52:39.423Z,18.70
2018-11-10T13:55:08.078Z,18.46
2018-11-10T13:57:37.361Z,18.01
2018-11-10T14:00:08.850Z,17.70
2018-11-10T14:02:38.139Z,17.60
2018-11-10T14:05:07.062Z,17.56
2018-11-10T14:07:36.386Z,17.35
2018-11-10T14:10:06.023Z,17.12
2018-11-10T14:12:35.318Z,17.13
2018-11-10T14:15:04.528Z,17.15
2018-11-10T14:17:33.763Z,17.00
2018-11-10T14:20:03.153Z,16.48
2018-11-10T14:22:32.314Z,16.58
2018-11-10T14:25:01.299Z,16.47
2018-11-10T14:27:30.078Z,16.31
2018-11-10T14:29:59.121Z,16.15
2018-11-10T14:32:28.050Z,15.90
2018-11-10T14:34:57.989Z,15.66
2018-11-10T14:37:27.202Z,15.49
2018-11-10T14:39:57.111Z,15.17
2018-11-10T14:42:26.095Z,15.03
2018-11-10T14:44:55.398Z,14.90
2018-11-10T14:47:24.353Z,14.76
2018-11-10T14:49:53.445Z,14.62
2018-11-10T14:52:22.746Z,14.47
2018-11-10T14:54:52.210Z,14.26
2018-11-10T14:57:21.455Z,14.22
2018-11-10T14:59:50.482Z,14.16
2018-11-10T15:02:19.658Z,14.03
2018-11-10T15:04:49.057Z,14.00
2018-11-10T15:07:18.111Z,13.98
2018-11-10T15:09:47.438Z,13.97
2018-11-10T15:12:19.081Z,13.86
2018-11-10T15:14:48.178Z,13.65
2018-11-10T15:17:17.489Z,13.40
2018-11-10T15:19:47.309Z,13.16
2018-11-10T15:22:16.397Z,12.96
2018-11-10T15:24:45.423Z,12.84
2018-11-10T15:27:14.286Z,12.72
2018-11-10T15:29:43.517Z,12.53
2018-11-10T15:32:13.187Z,12.37
2018-11-10T15:34:42.437Z,12.28
2018-11-10T15:37:11.683Z,12.17
2018-11-10T15:39:41.521Z,12.08
2018-11-10T15:42:11.576Z,12.03
2018-11-10T15:44:40.831Z,11.98
2018-11-10T15:47:10.223Z,11.91
2018-11-10T15:49:38.957Z,11.85
2018-11-10T15:52:08.714Z,11.75
2018-11-10T15:54:37.993Z,11.69
2018-11-10T15:57:07.410Z,11.65
2018-11-10T15:59:36.740Z,11.61
2018-11-10T16:02:06.558Z,11.57
2018-11-10T16:04:36.317Z,11.47
2018-11-10T16:07:11.539Z,11.43
2018-11-10T16:09:42.561Z,11.37
2018-11-10T16:12:11.578Z,11.29
2018-11-10T16:14:41.492Z,11.24
2018-11-10T16:17:10.521Z,11.21
2018-11-10T16:19:40.482Z,11.14
2018-11-10T16:22:09.805Z,11.07
2018-11-10T16:24:39.099Z,11.04
2018-11-10T16:27:08.926Z,11.02
2018-11-10T16:29:37.819Z,11.02
2018-11-10T16:32:06.985Z,10.99
2018-11-10T16:34:36.133Z,10.95
2018-11-10T16:37:05.812Z,10.89
2018-11-10T16:39:34.666Z,10.82
2018-11-10T16:42:03.670Z,10.77
2018-11-10T16:44:32.733Z,10.71
2018-11-10T16:47:01.965Z,10.64
2018-11-10T16:49:30.927Z,10.56
2018-11-10T16:52:00.163Z,10.43
2018-11-10T16:54:29.280Z,10.35
2018-11-10T16:56:58.504Z,10.30
2018-11-10T16:59:27.601Z,10.23
2018-11-10T17:01:56.718Z,10.16
2018-11-10T17:04:25.547Z,10.11
2018-11-10T17:06:54.756Z,10.04
2018-11-10T17:09:23.758Z,10.00
2018-11-10T17:11:52.723Z,9.92
2018-11-10T17:14:21.941Z,9.85
2018-11-10T17:16:51.705Z,9.76
2018-11-10T17:19:21.853Z,9.67
2018-11-10T17:21:51.271Z,9.65
2018-11-10T17:24:20.428Z,9.65
2018-11-10T17:26:49.642Z,9.65
2018-11-10T17:29:18.682Z,9.65
2018-11-10T17:31:47.626Z,9.64
2018-11-10T17:34:16.727Z,9.62
2018-11-10T17:36:47.486Z,9.59
2018-11-10T17:39:16.837Z,9.61
2018-11-10T17:41:45.991Z,9.62
2018-11-10T17:44:15.355Z,9.57
2018-11-10T17:46:44.590Z,9.58
2018-11-10T17:49:13.870Z,9.52
2018-11-10T17:51:42.890Z,9.46
2018-11-10T17:54:11.902Z,9.38
2018-11-10T17:56:55.823Z,9.35
2018-11-10T17:59:25.553Z,9.35
2018-11-10T18:01:54.695Z,9.32
2018-11-10T18:04:23.706Z,9.28
2018-11-10T18:06:52.848Z,9.25
2018-11-10T18:09:21.881Z,9.19
2018-11-10T18:11:52.480Z,9.13
2018-11-10T18:14:21.849Z,9.09
2018-11-10T18:16:52.222Z,9.04
2018-11-10T18:19:21.621Z,9.01
2018-11-10T18:21:51.387Z,9.03
2018-11-10T18:24:20.401Z,8.99
2018-11-10T18:26:50.177Z,8.97
2018-11-10T18:29:19.047Z,8.98
2018-11-10T18:31:48.258Z,8.97
2018-11-10T18:34:17.149Z,8.94
2018-11-10T18:36:49.064Z,8.91
2018-11-10T18:39:18.237Z,8.92
2018-11-10T18:41:47.410Z,8.90
2018-11-10T18:44:18.129Z,8.92
2018-11-10T18:46:47.313Z,8.92
2018-11-10T18:49:16.177Z,8.87
2018-11-10T18:51:45.400Z,8.85
2018-11-10T18:54:14.801Z,8.83
2018-11-10T18:56:43.702Z,8.80
2018-11-10T18:59:12.641Z,8.78
2018-11-10T19:01:41.951Z,8.76
2018-11-10T19:04:11.149Z,8.78
2018-11-10T19:06:40.257Z,8.77
2018-11-10T19:09:11.917Z,8.76
2018-11-10T19:11:41.180Z,8.75
2018-11-10T19:14:10.317Z,8.77
2018-11-10T19:16:39.386Z,8.76
2018-11-10T19:19:09.709Z,8.74
2018-11-10T19:24:15.178Z,8.82
2018-11-10T19:26:44.043Z,8.78
2018-11-10T19:29:13.159Z,8.79
2018-11-10T19:31:42.194Z,8.88
2018-11-10T19:34:11.259Z,8.80
2018-11-10T19:36:40.341Z,8.74
2018-11-10T19:39:10.889Z,8.56
2018-11-10T19:41:40.104Z,8.72
2018-11-10T19:44:09.548Z,8.64
2018-11-10T19:46:39.197Z,8.65
2018-11-10T19:49:08.785Z,8.79
2018-11-10T19:51:37.942Z,8.72
2018-11-10T19:54:06.587Z,8.68
2018-11-10T19:56:35.829Z,8.68
2018-11-10T19:59:04.857Z,8.57
2018-11-10T20:01:34.073Z,8.68
2018-11-10T20:04:04.222Z,8.73
2018-11-10T20:06:34.218Z,8.71
2018-11-10T20:09:04.814Z,8.67
2018-11-10T20:11:33.866Z,8.64
2018-11-10T20:14:02.985Z,8.63
2018-11-10T20:16:32.240Z,8.59
2018-11-10T20:19:01.479Z,8.62
2018-11-10T20:21:30.542Z,8.59
2018-11-10T20:23:59.777Z,8.54
2018-11-10T20:26:28.705Z,8.50
2018-11-10T20:28:57.934Z,8.49
2018-11-10T20:31:26.922Z,8.42
2018-11-10T20:33:56.087Z,8.31
2018-11-10T20:36:25.014Z,8.25
2018-11-10T20:38:54.150Z,8.16
2018-11-10T20:41:26.377Z,8.07
2018-11-10T20:43:55.667Z,8.01
2018-11-10T20:46:24.770Z,8.02
2018-11-10T20:48:53.883Z,7.99
2018-11-10T20:51:22.901Z,7.92
2018-11-10T20:53:52.142Z,8.00
2018-11-10T20:56:20.898Z,8.00
2018-11-10T20:58:50.165Z,7.95
2018-11-10T21:01:19.194Z,7.96
2018-11-10T21:03:48.430Z,7.95
2018-11-10T21:06:17.622Z,7.87
2018-11-10T21:08:46.679Z,7.81
2018-11-10T21:11:15.823Z,7.78
2018-11-10T21:13:51.144Z,7.71
2018-11-10T21:16:20.185Z,7.66
2018-11-10T21:18:49.337Z,7.67
2018-11-10T21:21:18.641Z,7.70
2018-11-10T21:23:47.842Z,7.66
2018-11-10T21:26:17.075Z,7.60
2018-11-10T21:28:45.923Z,7.57
2018-11-10T21:31:15.029Z,7.53
2018-11-10T21:33:44.076Z,7.53
2018-11-10T21:36:13.157Z,7.47
2018-11-10T21:38:42.162Z,7.56
2018-11-10T21:41:11.248Z,7.67
2018-11-10T21:43:40.078Z,7.67
2018-11-10T21:46:09.066Z,7.71
2018-11-10T21:48:38.353Z,7.72
2018-11-10T21:51:07.470Z,7.66
2018-11-10T21:53:36.523Z,7.56
2018-11-10T21:56:05.786Z,7.48
2018-11-10T21:58:34.622Z,7.41
2018-11-10T22:01:03.618Z,7.39
2018-11-10T22:03:32.642Z,7.36
2018-11-10T22:06:01.890Z,7.32
2018-11-10T22:08:31.030Z,7.27
2018-11-10T22:11:00.191Z,7.25
2018-11-10T22:13:29.501Z,7.22
2018-11-10T22:15:58.669Z,7.15
2018-11-10T22:18:27.805Z,7.14
2018-11-10T22:20:56.918Z,7.23
2018-11-10T22:23:25.726Z,7.27
2018-11-10T22:25:54.875Z,7.29
2018-11-10T22:28:23.998Z,7.28
2018-11-10T22:30:52.915Z,7.32
2018-11-10T22:33:21.762Z,7.34
2018-11-10T22:35:51.026Z,7.29
2018-11-10T22:38:19.835Z,7.26
2018-11-10T22:40:49.162Z,7.26
2018-11-10T22:43:18.149Z,7.26
2018-11-10T22:45:47.357Z,7.21
2018-11-10T22:48:16.585Z,7.17
2018-11-10T22:50:45.390Z,7.17
2018-11-10T22:53:14.399Z,7.19
2018-11-10T22:55:43.704Z,7.20
2018-11-10T22:58:12.763Z,7.23
2018-11-10T23:00:47.055Z,7.23
2018-11-10T23:03:15.974Z,7.18
2018-11-10T23:05:45.053Z,7.14
2018-11-10T23:08:14.112Z,7.06
2018-11-10T23:10:43.066Z,7.07
2018-11-10T23:13:12.190Z,7.10
2018-11-10T23:15:41.357Z,7.16
2018-11-10T23:18:10.510Z,7.22
2018-11-10T23:20:39.679Z,7.22
2018-11-10T23:23:08.831Z,7.18
2018-11-10T23:25:37.677Z,7.14
2018-11-10T23:28:06.867Z,7.10
2018-11-10T23:30:36.074Z,7.11
2018-11-10T23:33:05.653Z,7.14
2018-11-10T23:35:34.850Z,7.12
2018-11-10T23:38:04.141Z,7.15
2018-11-10T23:40:32.982Z,7.12
2018-11-10T23:43:02.249Z,7.05
2018-11-10T23:45:31.540Z,7.01
2018-11-10T23:48:00.397Z,7.01
2018-11-10T23:50:29.522Z,7.01
2018-11-10T23:52:58.322Z,6.97
2018-11-10T23:55:27.264Z,6.91
2018-11-10T23:57:56.359Z,6.92
